sensor_id;sensor_type;location;lat;lon;timestamp;P1;durP1;ratioP1;P2;durP2;ratioP2
72117;SDS011;59992;47.490;8.736;2023-11-19T00:02:16;3.90;;;2.10;;
72117;SDS011;59992;47.490;8.736;2023-11-19T00:04:44;3.60;;;2.10;;
72117;SDS011;59992;47.490;8.736;2023-11-19T00:07:12;3.90;;;2.10;;
72117;SDS011;59992;47.490;8.736;2023-11-19T00:09:40;3.50;;;1.90;;
72117;SDS011;59992;47.490;8.736;2023-11-19T00:12:09;2.50;;;1.80;;
72117;SDS011;59992;47.490;8.736;2023-11-19T00:14:37;4.00;;;2.10;;
72117;SDS011;59992;47.490;8.736;2023-11-19T00:17:05;3.30;;;1.90;;
72117;SDS011;59992;47.490;8.736;2023-11-19T00:19:33;4.40;;;2.10;;
72117;SDS011;59992;47.490;8.736;2023-11-19T00:22:00;2.90;;;1.80;;
72117;SDS011;59992;47.490;8.736;2023-11-19T00:24:29;3.00;;;1.70;;
72117;SDS011;59992;47.490;8.736;2023-11-19T00:26:57;4.70;;;1.90;;
72117;SDS011;59992;47.490;8.736;2023-11-19T00:29:25;3.30;;;1.70;;
72117;SDS011;59992;47.490;8.736;2023-11-19T00:31:53;2.90;;;1.90;;
72117;SDS011;59992;47.490;8.736;2023-11-19T00:34:20;4.60;;;2.10;;
72117;SDS011;59992;47.490;8.736;2023-11-19T00:36:48;3.10;;;1.80;;
72117;SDS011;59992;47.490;8.736;2023-11-19T00:39:16;5.10;;;1.90;;
72117;SDS011;59992;47.490;8.736;2023-11-19T00:41:43;2.70;;;1.60;;
72117;SDS011;59992;47.490;8.736;2023-11-19T00:44:13;2.20;;;1.70;;
72117;SDS011;59992;47.490;8.736;2023-11-19T00:46:41;2.70;;;1.50;;
72117;SDS011;59992;47.490;8.736;2023-11-19T00:49:09;3.30;;;1.60;;
72117;SDS011;59992;47.490;8.736;2023-11-19T00:51:37;3.30;;;2.10;;
72117;SDS011;59992;47.490;8.736;2023-11-19T00:54:05;2.50;;;1.70;;
72117;SDS011;59992;47.490;8.736;2023-11-19T00:56:33;3.30;;;1.90;;
72117;SDS011;59992;47.490;8.736;2023-11-19T00:59:00;2.80;;;1.60;;
72117;SDS011;59992;47.490;8.736;2023-11-19T01:01:27;2.80;;;1.70;;
72117;SDS011;59992;47.490;8.736;2023-11-19T01:03:56;3.40;;;1.50;;
72117;SDS011;59992;47.490;8.736;2023-11-19T01:06:27;1.80;;;1.30;;
72117;SDS011;59992;47.490;8.736;2023-11-19T01:08:55;2.70;;;1.60;;
72117;SDS011;59992;47.490;8.736;2023-11-19T01:11:24;2.30;;;1.40;;
72117;SDS011;59992;47.490;8.736;2023-11-19T01:13:54;3.10;;;1.50;;
72117;SDS011;59992;47.490;8.736;2023-11-19T01:16:21;2.20;;;1.40;;
72117;SDS011;59992;47.490;8.736;2023-11-19T01:18:49;2.70;;;1.40;;
72117;SDS011;59992;47.490;8.736;2023-11-19T01:21:17;3.60;;;1.90;;
72117;SDS011;59992;47.490;8.736;2023-11-19T01:23:45;3.50;;;1.70;;
72117;SDS011;59992;47.490;8.736;2023-11-19T01:26:13;2.70;;;1.20;;
72117;SDS011;59992;47.490;8.736;2023-11-19T01:28:41;2.70;;;1.60;;
72117;SDS011;59992;47.490;8.736;2023-11-19T01:31:11;3.50;;;1.70;;
72117;SDS011;59992;47.490;8.736;2023-11-19T01:33:41;5.00;;;1.70;;
72117;SDS011;59992;47.490;8.736;2023-11-19T01:36:12;3.30;;;1.90;;
72117;SDS011;59992;47.490;8.736;2023-11-19T01:38:40;3.60;;;1.60;;
72117;SDS011;59992;47.490;8.736;2023-11-19T01:41:08;3.70;;;1.50;;
72117;SDS011;59992;47.490;8.736;2023-11-19T01:43:36;2.50;;;1.70;;
72117;SDS011;59992;47.490;8.736;2023-11-19T01:46:05;2.50;;;1.40;;
72117;SDS011;59992;47.490;8.736;2023-11-19T01:48:36;3.00;;;1.50;;
72117;SDS011;59992;47.490;8.736;2023-11-19T01:51:07;3.30;;;1.70;;
72117;SDS011;59992;47.490;8.736;2023-11-19T01:53:36;3.80;;;1.60;;
72117;SDS011;59992;47.490;8.736;2023-11-19T01:56:05;2.90;;;1.90;;
72117;SDS011;59992;47.490;8.736;2023-11-19T01:58:36;2.80;;;1.70;;
72117;SDS011;59992;47.490;8.736;2023-11-19T02:01:05;3.40;;;1.60;;
72117;SDS011;59992;47.490;8.736;2023-11-19T02:03:33;3.20;;;1.80;;
72117;SDS011;59992;47.490;8.736;2023-11-19T02:06:01;2.90;;;1.40;;
72117;SDS011;59992;47.490;8.736;2023-11-19T02:08:31;2.60;;;1.50;;
72117;SDS011;59992;47.490;8.736;2023-11-19T02:10:58;2.50;;;1.40;;
72117;SDS011;59992;47.490;8.736;2023-11-19T02:13:26;3.80;;;1.60;;
72117;SDS011;59992;47.490;8.736;2023-11-19T02:15:55;4.70;;;1.80;;
72117;SDS011;59992;47.490;8.736;2023-11-19T02:18:23;3.70;;;1.70;;
72117;SDS011;59992;47.490;8.736;2023-11-19T02:20:54;2.70;;;1.20;;
72117;SDS011;59992;47.490;8.736;2023-11-19T02:23:21;3.90;;;1.60;;
72117;SDS011;59992;47.490;8.736;2023-11-19T02:25:55;3.30;;;1.30;;
72117;SDS011;59992;47.490;8.736;2023-11-19T02:28:28;2.30;;;1.30;;
72117;SDS011;59992;47.490;8.736;2023-11-19T02:30:56;4.30;;;1.20;;
72117;SDS011;59992;47.490;8.736;2023-11-19T02:33:23;2.40;;;1.20;;
72117;SDS011;59992;47.490;8.736;2023-11-19T02:35:51;3.00;;;1.30;;
72117;SDS011;59992;47.490;8.736;2023-11-19T02:38:19;2.90;;;1.30;;
72117;SDS011;59992;47.490;8.736;2023-11-19T02:40:47;2.00;;;1.10;;
72117;SDS011;59992;47.490;8.736;2023-11-19T02:43:15;3.40;;;1.20;;
72117;SDS011;59992;47.490;8.736;2023-11-19T02:45:44;4.00;;;1.40;;
72117;SDS011;59992;47.490;8.736;2023-11-19T02:48:11;2.40;;;1.10;;
72117;SDS011;59992;47.490;8.736;2023-11-19T02:50:40;1.40;;;0.90;;
72117;SDS011;59992;47.490;8.736;2023-11-19T02:53:08;3.00;;;1.20;;
72117;SDS011;59992;47.490;8.736;2023-11-19T02:55:37;2.00;;;1.10;;
72117;SDS011;59992;47.490;8.736;2023-11-19T02:58:07;2.00;;;1.30;;
72117;SDS011;59992;47.490;8.736;2023-11-19T03:00:46;3.50;;;1.40;;
72117;SDS011;59992;47.490;8.736;2023-11-19T03:03:18;2.10;;;1.40;;
72117;SDS011;59992;47.490;8.736;2023-11-19T03:05:49;2.90;;;1.10;;
72117;SDS011;59992;47.490;8.736;2023-11-19T03:08:17;3.00;;;1.50;;
72117;SDS011;59992;47.490;8.736;2023-11-19T03:10:45;3.20;;;1.30;;
72117;SDS011;59992;47.490;8.736;2023-11-19T03:13:13;3.30;;;1.50;;
72117;SDS011;59992;47.490;8.736;2023-11-19T03:15:41;2.90;;;1.60;;
72117;SDS011;59992;47.490;8.736;2023-11-19T03:18:09;2.40;;;1.30;;
72117;SDS011;59992;47.490;8.736;2023-11-19T03:20:37;2.90;;;1.60;;
72117;SDS011;59992;47.490;8.736;2023-11-19T03:23:17;3.00;;;1.40;;
72117;SDS011;59992;47.490;8.736;2023-11-19T03:25:45;2.90;;;1.60;;
72117;SDS011;59992;47.490;8.736;2023-11-19T03:28:12;4.60;;;2.10;;
72117;SDS011;59992;47.490;8.736;2023-11-19T03:30:41;2.70;;;1.40;;
72117;SDS011;59992;47.490;8.736;2023-11-19T03:33:08;2.80;;;1.70;;
72117;SDS011;59992;47.490;8.736;2023-11-19T03:35:37;4.10;;;1.80;;
72117;SDS011;59992;47.490;8.736;2023-11-19T03:38:07;3.50;;;2.00;;
72117;SDS011;59992;47.490;8.736;2023-11-19T03:40:37;4.40;;;1.90;;
72117;SDS011;59992;47.490;8.736;2023-11-19T03:43:05;3.30;;;2.10;;
72117;SDS011;59992;47.490;8.736;2023-11-19T03:45:33;3.60;;;1.90;;
72117;SDS011;59992;47.490;8.736;2023-11-19T03:48:02;3.50;;;1.80;;
72117;SDS011;59992;47.490;8.736;2023-11-19T03:50:30;2.70;;;1.70;;
72117;SDS011;59992;47.490;8.736;2023-11-19T03:52:58;4.00;;;2.10;;
72117;SDS011;59992;47.490;8.736;2023-11-19T03:55:25;4.10;;;2.40;;
72117;SDS011;59992;47.490;8.736;2023-11-19T03:57:53;3.20;;;1.90;;
72117;SDS011;59992;47.490;8.736;2023-11-19T04:00:20;2.90;;;2.00;;
72117;SDS011;59992;47.490;8.736;2023-11-19T04:02:48;5.30;;;2.10;;
72117;SDS011;59992;47.490;8.736;2023-11-19T04:05:16;3.00;;;1.70;;
72117;SDS011;59992;47.490;8.736;2023-11-19T04:07:45;3.30;;;1.90;;
72117;SDS011;59992;47.490;8.736;2023-11-19T04:10:12;3.90;;;2.00;;
72117;SDS011;59992;47.490;8.736;2023-11-19T04:12:42;3.00;;;1.80;;
72117;SDS011;59992;47.490;8.736;2023-11-19T04:15:10;3.30;;;1.90;;
72117;SDS011;59992;47.490;8.736;2023-11-19T04:17:43;4.90;;;1.70;;
72117;SDS011;59992;47.490;8.736;2023-11-19T04:20:11;3.10;;;1.70;;
72117;SDS011;59992;47.490;8.736;2023-11-19T04:22:40;3.90;;;1.80;;
72117;SDS011;59992;47.490;8.736;2023-11-19T04:25:07;3.90;;;1.80;;
72117;SDS011;59992;47.490;8.736;2023-11-19T04:27:35;2.80;;;1.80;;
72117;SDS011;59992;47.490;8.736;2023-11-19T04:30:04;2.30;;;1.30;;
72117;SDS011;59992;47.490;8.736;2023-11-19T04:32:37;2.30;;;1.50;;
72117;SDS011;59992;47.490;8.736;2023-11-19T04:35:06;1.90;;;1.30;;
72117;SDS011;59992;47.490;8.736;2023-11-19T04:37:35;2.10;;;1.50;;
72117;SDS011;59992;47.490;8.736;2023-11-19T04:40:02;3.60;;;2.00;;
72117;SDS011;59992;47.490;8.736;2023-11-19T04:42:31;3.40;;;2.00;;
72117;SDS011;59992;47.490;8.736;2023-11-19T04:45:00;2.70;;;1.90;;
72117;SDS011;59992;47.490;8.736;2023-11-19T04:47:27;3.10;;;1.90;;
72117;SDS011;59992;47.490;8.736;2023-11-19T04:49:55;3.30;;;1.70;;
72117;SDS011;59992;47.490;8.736;2023-11-19T04:52:24;3.10;;;1.90;;
72117;SDS011;59992;47.490;8.736;2023-11-19T04:54:51;3.90;;;2.10;;
72117;SDS011;59992;47.490;8.736;2023-11-19T04:57:19;4.90;;;2.00;;
72117;SDS011;59992;47.490;8.736;2023-11-19T04:59:47;3.20;;;2.00;;
72117;SDS011;59992;47.490;8.736;2023-11-19T05:02:14;3.80;;;1.90;;
72117;SDS011;59992;47.490;8.736;2023-11-19T05:04:43;5.10;;;2.30;;
72117;SDS011;59992;47.490;8.736;2023-11-19T05:07:11;4.30;;;2.00;;
72117;SDS011;59992;47.490;8.736;2023-11-19T05:09:40;3.80;;;1.80;;
72117;SDS011;59992;47.490;8.736;2023-11-19T05:12:09;3.90;;;1.90;;
72117;SDS011;59992;47.490;8.736;2023-11-19T05:14:38;3.00;;;2.10;;
72117;SDS011;59992;47.490;8.736;2023-11-19T05:17:06;3.10;;;1.90;;
72117;SDS011;59992;47.490;8.736;2023-11-19T05:19:34;3.10;;;1.60;;
72117;SDS011;59992;47.490;8.736;2023-11-19T05:22:01;3.90;;;1.70;;
72117;SDS011;59992;47.490;8.736;2023-11-19T05:24:29;2.60;;;1.60;;
72117;SDS011;59992;47.490;8.736;2023-11-19T05:26:57;2.10;;;1.30;;
72117;SDS011;59992;47.490;8.736;2023-11-19T05:29:25;2.10;;;1.60;;
72117;SDS011;59992;47.490;8.736;2023-11-19T05:31:53;3.40;;;1.60;;
72117;SDS011;59992;47.490;8.736;2023-11-19T05:34:21;2.40;;;1.30;;
72117;SDS011;59992;47.490;8.736;2023-11-19T05:36:49;2.30;;;1.50;;
72117;SDS011;59992;47.490;8.736;2023-11-19T05:39:17;3.50;;;1.80;;
72117;SDS011;59992;47.490;8.736;2023-11-19T05:41:46;3.00;;;1.80;;
72117;SDS011;59992;47.490;8.736;2023-11-19T05:44:14;3.20;;;1.90;;
72117;SDS011;59992;47.490;8.736;2023-11-19T05:46:42;4.70;;;1.70;;
72117;SDS011;59992;47.490;8.736;2023-11-19T05:49:11;2.90;;;2.00;;
72117;SDS011;59992;47.490;8.736;2023-11-19T05:51:39;3.30;;;2.10;;
72117;SDS011;59992;47.490;8.736;2023-11-19T05:54:07;3.70;;;1.70;;
72117;SDS011;59992;47.490;8.736;2023-11-19T05:56:36;3.90;;;1.70;;
72117;SDS011;59992;47.490;8.736;2023-11-19T05:59:04;2.40;;;1.10;;
72117;SDS011;59992;47.490;8.736;2023-11-19T06:01:33;3.60;;;1.50;;
72117;SDS011;59992;47.490;8.736;2023-11-19T06:04:02;3.20;;;1.70;;
72117;SDS011;59992;47.490;8.736;2023-11-19T06:06:30;2.30;;;1.30;;
72117;SDS011;59992;47.490;8.736;2023-11-19T06:08:58;3.50;;;1.50;;
72117;SDS011;59992;47.490;8.736;2023-11-19T06:11:28;3.50;;;1.50;;
72117;SDS011;59992;47.490;8.736;2023-11-19T06:13:55;2.10;;;1.40;;
72117;SDS011;59992;47.490;8.736;2023-11-19T06:16:24;2.30;;;1.50;;
72117;SDS011;59992;47.490;8.736;2023-11-19T06:18:51;3.40;;;1.50;;
72117;SDS011;59992;47.490;8.736;2023-11-19T06:21:19;1.90;;;1.40;;
72117;SDS011;59992;47.490;8.736;2023-11-19T06:23:47;2.20;;;1.00;;
72117;SDS011;59992;47.490;8.736;2023-11-19T06:26:17;3.30;;;1.40;;
72117;SDS011;59992;47.490;8.736;2023-11-19T06:28:45;2.80;;;1.10;;
72117;SDS011;59992;47.490;8.736;2023-11-19T06:31:13;2.70;;;1.20;;
72117;SDS011;59992;47.490;8.736;2023-11-19T06:33:42;2.20;;;1.40;;
72117;SDS011;59992;47.490;8.736;2023-11-19T06:36:10;2.00;;;1.20;;
72117;SDS011;59992;47.490;8.736;2023-11-19T06:38:42;2.70;;;1.20;;
72117;SDS011;59992;47.490;8.736;2023-11-19T06:41:10;3.60;;;1.10;;
72117;SDS011;59992;47.490;8.736;2023-11-19T06:43:37;1.80;;;1.10;;
72117;SDS011;59992;47.490;8.736;2023-11-19T06:46:05;1.80;;;1.10;;
72117;SDS011;59992;47.490;8.736;2023-11-19T06:48:40;3.00;;;1.30;;
72117;SDS011;59992;47.490;8.736;2023-11-19T06:51:10;2.40;;;1.40;;
72117;SDS011;59992;47.490;8.736;2023-11-19T06:53:38;3.20;;;1.30;;
72117;SDS011;59992;47.490;8.736;2023-11-19T06:56:10;3.20;;;1.50;;
72117;SDS011;59992;47.490;8.736;2023-11-19T06:58:45;4.20;;;1.60;;
72117;SDS011;59992;47.490;8.736;2023-11-19T07:01:13;3.60;;;1.30;;
72117;SDS011;59992;47.490;8.736;2023-11-19T07:03:41;3.10;;;1.40;;
72117;SDS011;59992;47.490;8.736;2023-11-19T07:06:10;2.10;;;1.20;;
72117;SDS011;59992;47.490;8.736;2023-11-19T07:08:38;3.30;;;1.30;;
72117;SDS011;59992;47.490;8.736;2023-11-19T07:11:07;2.50;;;1.40;;
72117;SDS011;59992;47.490;8.736;2023-11-19T07:13:36;2.20;;;1.00;;
72117;SDS011;59992;47.490;8.736;2023-11-19T07:16:05;2.50;;;1.20;;
72117;SDS011;59992;47.490;8.736;2023-11-19T07:18:36;1.80;;;1.10;;
72117;SDS011;59992;47.490;8.736;2023-11-19T07:21:05;2.60;;;1.40;;
72117;SDS011;59992;47.490;8.736;2023-11-19T07:23:33;3.80;;;1.00;;
72117;SDS011;59992;47.490;8.736;2023-11-19T07:26:00;2.90;;;1.40;;
72117;SDS011;59992;47.490;8.736;2023-11-19T07:28:30;2.40;;;1.30;;
72117;SDS011;59992;47.490;8.736;2023-11-19T07:30:58;2.10;;;1.20;;
72117;SDS011;59992;47.490;8.736;2023-11-19T07:33:26;2.10;;;1.20;;
72117;SDS011;59992;47.490;8.736;2023-11-19T07:35:56;1.70;;;1.10;;
72117;SDS011;59992;47.490;8.736;2023-11-19T07:38:23;1.90;;;1.00;;
72117;SDS011;59992;47.490;8.736;2023-11-19T07:40:51;2.30;;;1.20;;
72117;SDS011;59992;47.490;8.736;2023-11-19T07:43:18;2.80;;;1.10;;
72117;SDS011;59992;47.490;8.736;2023-11-19T07:45:46;2.50;;;1.00;;
72117;SDS011;59992;47.490;8.736;2023-11-19T07:48:14;1.00;;;0.80;;
72117;SDS011;59992;47.490;8.736;2023-11-19T07:50:42;2.60;;;1.10;;
72117;SDS011;59992;47.490;8.736;2023-11-19T07:53:09;2.70;;;1.20;;
72117;SDS011;59992;47.490;8.736;2023-11-19T07:55:38;2.20;;;1.20;;
72117;SDS011;59992;47.490;8.736;2023-11-19T07:58:06;3.30;;;1.60;;
72117;SDS011;59992;47.490;8.736;2023-11-19T08:00:34;3.20;;;1.10;;
72117;SDS011;59992;47.490;8.736;2023-11-19T08:03:02;2.60;;;1.00;;
72117;SDS011;59992;47.490;8.736;2023-11-19T08:05:31;3.10;;;1.20;;
72117;SDS011;59992;47.490;8.736;2023-11-19T08:07:58;1.90;;;1.20;;
72117;SDS011;59992;47.490;8.736;2023-11-19T08:10:26;2.20;;;1.20;;
72117;SDS011;59992;47.490;8.736;2023-11-19T08:12:55;2.90;;;1.10;;
72117;SDS011;59992;47.490;8.736;2023-11-19T08:15:23;3.00;;;1.40;;
72117;SDS011;59992;47.490;8.736;2023-11-19T08:17:54;1.60;;;0.90;;
72117;SDS011;59992;47.490;8.736;2023-11-19T08:20:21;2.70;;;1.20;;
72117;SDS011;59992;47.490;8.736;2023-11-19T08:22:50;2.30;;;1.10;;
72117;SDS011;59992;47.490;8.736;2023-11-19T08:25:18;1.40;;;0.90;;
72117;SDS011;59992;47.490;8.736;2023-11-19T08:27:46;2.00;;;0.90;;
72117;SDS011;59992;47.490;8.736;2023-11-19T08:30:14;1.50;;;0.70;;
72117;SDS011;59992;47.490;8.736;2023-11-19T08:32:41;1.60;;;0.90;;
72117;SDS011;59992;47.490;8.736;2023-11-19T08:35:09;3.40;;;1.00;;
72117;SDS011;59992;47.490;8.736;2023-11-19T08:37:37;1.60;;;1.00;;
72117;SDS011;59992;47.490;8.736;2023-11-19T08:40:06;2.10;;;1.00;;
72117;SDS011;59992;47.490;8.736;2023-11-19T08:42:35;2.20;;;0.80;;
72117;SDS011;59992;47.490;8.736;2023-11-19T08:45:06;1.50;;;1.00;;
72117;SDS011;59992;47.490;8.736;2023-11-19T08:47:36;1.30;;;0.90;;
72117;SDS011;59992;47.490;8.736;2023-11-19T08:50:05;1.50;;;0.80;;
72117;SDS011;59992;47.490;8.736;2023-11-19T08:52:34;1.40;;;0.80;;
72117;SDS011;59992;47.490;8.736;2023-11-19T08:55:02;1.70;;;1.10;;
72117;SDS011;59992;47.490;8.736;2023-11-19T08:57:31;3.60;;;0.90;;
72117;SDS011;59992;47.490;8.736;2023-11-19T08:59:59;2.00;;;0.90;;
72117;SDS011;59992;47.490;8.736;2023-11-19T09:02:27;1.60;;;1.00;;
72117;SDS011;59992;47.490;8.736;2023-11-19T09:04:54;1.30;;;0.80;;
72117;SDS011;59992;47.490;8.736;2023-11-19T09:07:22;1.80;;;1.00;;
72117;SDS011;59992;47.490;8.736;2023-11-19T09:09:50;3.40;;;1.80;;
72117;SDS011;59992;47.490;8.736;2023-11-19T09:12:18;3.70;;;1.50;;
72117;SDS011;59992;47.490;8.736;2023-11-19T09:14:46;4.40;;;1.30;;
72117;SDS011;59992;47.490;8.736;2023-11-19T09:17:15;3.10;;;1.20;;
72117;SDS011;59992;47.490;8.736;2023-11-19T09:19:45;2.30;;;1.00;;
72117;SDS011;59992;47.490;8.736;2023-11-19T09:22:15;3.30;;;1.20;;
72117;SDS011;59992;47.490;8.736;2023-11-19T09:24:43;2.80;;;1.20;;
72117;SDS011;59992;47.490;8.736;2023-11-19T09:27:11;2.90;;;0.90;;
72117;SDS011;59992;47.490;8.736;2023-11-19T09:29:40;3.50;;;1.30;;
72117;SDS011;59992;47.490;8.736;2023-11-19T09:32:12;2.50;;;1.40;;
72117;SDS011;59992;47.490;8.736;2023-11-19T09:34:40;2.50;;;1.30;;
72117;SDS011;59992;47.490;8.736;2023-11-19T09:37:07;3.00;;;1.30;;
72117;SDS011;59992;47.490;8.736;2023-11-19T09:39:36;2.00;;;1.00;;
72117;SDS011;59992;47.490;8.736;2023-11-19T09:42:06;1.60;;;0.90;;
72117;SDS011;59992;47.490;8.736;2023-11-19T09:44:34;2.30;;;1.00;;
72117;SDS011;59992;47.490;8.736;2023-11-19T09:47:03;2.10;;;1.00;;
72117;SDS011;59992;47.490;8.736;2023-11-19T09:49:38;1.80;;;1.10;;
72117;SDS011;59992;47.490;8.736;2023-11-19T09:52:07;1.50;;;0.80;;
72117;SDS011;59992;47.490;8.736;2023-11-19T09:54:35;1.60;;;0.90;;
72117;SDS011;59992;47.490;8.736;2023-11-19T09:57:03;1.80;;;0.90;;
72117;SDS011;59992;47.490;8.736;2023-11-19T09:59:33;1.70;;;0.80;;
72117;SDS011;59992;47.490;8.736;2023-11-19T10:02:03;1.80;;;1.00;;
72117;SDS011;59992;47.490;8.736;2023-11-19T10:04:33;2.60;;;0.90;;
72117;SDS011;59992;47.490;8.736;2023-11-19T10:07:03;3.10;;;1.40;;
72117;SDS011;59992;47.490;8.736;2023-11-19T10:09:31;1.30;;;0.90;;
72117;SDS011;59992;47.490;8.736;2023-11-19T10:11:59;1.80;;;1.10;;
72117;SDS011;59992;47.490;8.736;2023-11-19T10:14:27;3.10;;;1.10;;
72117;SDS011;59992;47.490;8.736;2023-11-19T10:16:58;5.50;;;1.20;;
72117;SDS011;59992;47.490;8.736;2023-11-19T10:19:30;2.00;;;0.80;;
72117;SDS011;59992;47.490;8.736;2023-11-19T10:22:02;2.90;;;1.10;;
72117;SDS011;59992;47.490;8.736;2023-11-19T10:24:32;2.40;;;1.10;;
72117;SDS011;59992;47.490;8.736;2023-11-19T10:27:01;2.70;;;1.00;;
72117;SDS011;59992;47.490;8.736;2023-11-19T10:29:30;2.10;;;1.10;;
72117;SDS011;59992;47.490;8.736;2023-11-19T10:31:57;2.10;;;0.90;;
72117;SDS011;59992;47.490;8.736;2023-11-19T10:34:25;1.70;;;1.10;;
72117;SDS011;59992;47.490;8.736;2023-11-19T10:36:54;2.10;;;0.80;;
72117;SDS011;59992;47.490;8.736;2023-11-19T10:39:21;2.30;;;0.90;;
72117;SDS011;59992;47.490;8.736;2023-11-19T10:41:53;2.20;;;0.90;;
72117;SDS011;59992;47.490;8.736;2023-11-19T10:44:31;1.70;;;1.20;;
72117;SDS011;59992;47.490;8.736;2023-11-19T10:47:01;1.30;;;0.80;;
72117;SDS011;59992;47.490;8.736;2023-11-19T10:49:34;1.70;;;0.90;;
72117;SDS011;59992;47.490;8.736;2023-11-19T10:52:02;2.40;;;1.10;;
72117;SDS011;59992;47.490;8.736;2023-11-19T10:54:31;2.00;;;1.10;;
72117;SDS011;59992;47.490;8.736;2023-11-19T10:57:01;2.90;;;1.10;;
72117;SDS011;59992;47.490;8.736;2023-11-19T10:59:32;1.80;;;1.10;;
72117;SDS011;59992;47.490;8.736;2023-11-19T11:02:03;2.20;;;1.10;;
72117;SDS011;59992;47.490;8.736;2023-11-19T11:04:37;1.60;;;1.00;;
72117;SDS011;59992;47.490;8.736;2023-11-19T11:07:09;1.70;;;1.00;;
72117;SDS011;59992;47.490;8.736;2023-11-19T11:09:37;2.90;;;1.10;;
72117;SDS011;59992;47.490;8.736;2023-11-19T11:12:07;1.70;;;0.80;;
72117;SDS011;59992;47.490;8.736;2023-11-19T11:14:38;2.60;;;1.10;;
72117;SDS011;59992;47.490;8.736;2023-11-19T11:17:06;1.40;;;1.00;;
72117;SDS011;59992;47.490;8.736;2023-11-19T11:19:36;3.10;;;0.90;;
72117;SDS011;59992;47.490;8.736;2023-11-19T11:22:04;1.70;;;0.90;;
72117;SDS011;59992;47.490;8.736;2023-11-19T11:24:40;3.40;;;1.00;;
72117;SDS011;59992;47.490;8.736;2023-11-19T11:27:40;1.70;;;1.10;;
72117;SDS011;59992;47.490;8.736;2023-11-19T11:30:17;3.90;;;1.20;;
72117;SDS011;59992;47.490;8.736;2023-11-19T11:32:54;2.60;;;1.10;;
72117;SDS011;59992;47.490;8.736;2023-11-19T11:35:33;2.00;;;1.20;;
72117;SDS011;59992;47.490;8.736;2023-11-19T11:38:11;1.70;;;1.00;;
72117;SDS011;59992;47.490;8.736;2023-11-19T11:40:40;2.60;;;1.20;;
72117;SDS011;59992;47.490;8.736;2023-11-19T11:46:14;1.50;;;1.10;;
72117;SDS011;59992;47.490;8.736;2023-11-19T11:49:25;1.40;;;1.00;;
72117;SDS011;59992;47.490;8.736;2023-11-19T11:52:01;3.40;;;1.00;;
72117;SDS011;59992;47.490;8.736;2023-11-19T11:54:30;1.40;;;0.90;;
72117;SDS011;59992;47.490;8.736;2023-11-19T11:57:02;1.40;;;1.00;;
72117;SDS011;59992;47.490;8.736;2023-11-19T11:59:41;1.80;;;1.00;;
72117;SDS011;59992;47.490;8.736;2023-11-19T12:02:12;3.60;;;0.90;;
72117;SDS011;59992;47.490;8.736;2023-11-19T12:04:40;1.80;;;0.80;;
72117;SDS011;59992;47.490;8.736;2023-11-19T12:07:11;1.50;;;1.00;;
72117;SDS011;59992;47.490;8.736;2023-11-19T12:09:40;1.80;;;0.90;;
72117;SDS011;59992;47.490;8.736;2023-11-19T12:12:13;2.60;;;1.00;;
72117;SDS011;59992;47.490;8.736;2023-11-19T12:17:49;2.30;;;1.00;;
72117;SDS011;59992;47.490;8.736;2023-11-19T12:20:17;2.00;;;0.90;;
72117;SDS011;59992;47.490;8.736;2023-11-19T12:22:47;1.90;;;1.10;;
72117;SDS011;59992;47.490;8.736;2023-11-19T12:25:15;1.40;;;0.70;;
72117;SDS011;59992;47.490;8.736;2023-11-19T12:27:44;2.10;;;1.00;;
72117;SDS011;59992;47.490;8.736;2023-11-19T12:30:17;2.40;;;1.20;;
72117;SDS011;59992;47.490;8.736;2023-11-19T12:32:48;3.00;;;1.00;;
72117;SDS011;59992;47.490;8.736;2023-11-19T12:35:16;1.50;;;0.90;;
72117;SDS011;59992;47.490;8.736;2023-11-19T12:37:44;1.90;;;1.00;;
72117;SDS011;59992;47.490;8.736;2023-11-19T12:40:14;1.80;;;0.80;;
72117;SDS011;59992;47.490;8.736;2023-11-19T12:42:43;3.70;;;1.00;;
72117;SDS011;59992;47.490;8.736;2023-11-19T12:45:12;2.50;;;1.00;;
72117;SDS011;59992;47.490;8.736;2023-11-19T12:47:42;1.30;;;1.00;;
72117;SDS011;59992;47.490;8.736;2023-11-19T12:50:10;2.00;;;0.90;;
72117;SDS011;59992;47.490;8.736;2023-11-19T12:52:38;2.00;;;0.90;;
72117;SDS011;59992;47.490;8.736;2023-11-19T12:57:52;2.00;;;1.00;;
72117;SDS011;59992;47.490;8.736;2023-11-19T13:00:22;2.30;;;1.00;;
72117;SDS011;59992;47.490;8.736;2023-11-19T13:02:52;1.50;;;1.00;;
72117;SDS011;59992;47.490;8.736;2023-11-19T13:05:23;1.40;;;0.90;;
72117;SDS011;59992;47.490;8.736;2023-11-19T13:07:59;1.50;;;0.90;;
72117;SDS011;59992;47.490;8.736;2023-11-19T13:10:27;2.90;;;1.40;;
72117;SDS011;59992;47.490;8.736;2023-11-19T13:13:05;1.10;;;0.80;;
72117;SDS011;59992;47.490;8.736;2023-11-19T13:15:36;2.00;;;1.00;;
72117;SDS011;59992;47.490;8.736;2023-11-19T13:18:04;2.80;;;1.00;;
72117;SDS011;59992;47.490;8.736;2023-11-19T13:20:33;3.20;;;1.20;;
72117;SDS011;59992;47.490;8.736;2023-11-19T13:23:01;2.70;;;0.90;;
72117;SDS011;59992;47.490;8.736;2023-11-19T13:25:31;2.50;;;1.10;;
72117;SDS011;59992;47.490;8.736;2023-11-19T13:27:59;1.40;;;1.00;;
72117;SDS011;59992;47.490;8.736;2023-11-19T13:30:27;2.00;;;0.90;;
72117;SDS011;59992;47.490;8.736;2023-11-19T13:32:55;1.20;;;0.90;;
72117;SDS011;59992;47.490;8.736;2023-11-19T13:35:22;1.40;;;1.00;;
72117;SDS011;59992;47.490;8.736;2023-11-19T13:37:50;2.70;;;1.00;;
72117;SDS011;59992;47.490;8.736;2023-11-19T13:40:18;1.80;;;0.90;;
72117;SDS011;59992;47.490;8.736;2023-11-19T13:42:48;1.30;;;0.90;;
72117;SDS011;59992;47.490;8.736;2023-11-19T13:45:16;1.50;;;0.70;;
72117;SDS011;59992;47.490;8.736;2023-11-19T13:47:46;2.40;;;0.80;;
72117;SDS011;59992;47.490;8.736;2023-11-19T13:50:14;1.30;;;0.90;;
72117;SDS011;59992;47.490;8.736;2023-11-19T13:52:43;2.10;;;0.80;;
72117;SDS011;59992;47.490;8.736;2023-11-19T13:55:13;1.40;;;0.80;;
72117;SDS011;59992;47.490;8.736;2023-11-19T13:57:41;1.90;;;0.90;;
72117;SDS011;59992;47.490;8.736;2023-11-19T14:00:11;1.30;;;0.90;;
72117;SDS011;59992;47.490;8.736;2023-11-19T14:02:40;1.10;;;0.70;;
72117;SDS011;59992;47.490;8.736;2023-11-19T14:05:08;1.70;;;0.80;;
72117;SDS011;59992;47.490;8.736;2023-11-19T14:07:36;3.00;;;0.90;;
72117;SDS011;59992;47.490;8.736;2023-11-19T14:10:05;1.70;;;0.70;;
72117;SDS011;59992;47.490;8.736;2023-11-19T14:12:35;1.60;;;0.80;;
72117;SDS011;59992;47.490;8.736;2023-11-19T14:15:03;1.10;;;0.90;;
72117;SDS011;59992;47.490;8.736;2023-11-19T14:17:32;1.70;;;0.80;;
72117;SDS011;59992;47.490;8.736;2023-11-19T14:20:00;1.50;;;0.80;;
72117;SDS011;59992;47.490;8.736;2023-11-19T14:22:39;1.00;;;0.60;;
72117;SDS011;59992;47.490;8.736;2023-11-19T14:25:08;1.20;;;0.80;;
72117;SDS011;59992;47.490;8.736;2023-11-19T14:27:36;1.90;;;0.80;;
72117;SDS011;59992;47.490;8.736;2023-11-19T14:30:05;1.40;;;0.70;;
72117;SDS011;59992;47.490;8.736;2023-11-19T14:32:35;1.30;;;0.80;;
72117;SDS011;59992;47.490;8.736;2023-11-19T14:35:04;1.60;;;0.90;;
72117;SDS011;59992;47.490;8.736;2023-11-19T14:37:32;2.60;;;1.10;;
72117;SDS011;59992;47.490;8.736;2023-11-19T14:40:00;6.00;;;2.10;;
72117;SDS011;59992;47.490;8.736;2023-11-19T14:42:30;3.30;;;1.50;;
72117;SDS011;59992;47.490;8.736;2023-11-19T14:44:58;1.90;;;0.70;;
72117;SDS011;59992;47.490;8.736;2023-11-19T14:47:26;1.50;;;0.90;;
72117;SDS011;59992;47.490;8.736;2023-11-19T14:49:55;1.20;;;0.60;;
72117;SDS011;59992;47.490;8.736;2023-11-19T14:52:23;1.10;;;0.80;;
72117;SDS011;59992;47.490;8.736;2023-11-19T14:54:50;1.10;;;0.80;;
72117;SDS011;59992;47.490;8.736;2023-11-19T14:57:20;2.50;;;0.90;;
72117;SDS011;59992;47.490;8.736;2023-11-19T14:59:48;1.40;;;0.90;;
72117;SDS011;59992;47.490;8.736;2023-11-19T15:02:17;1.30;;;0.80;;
72117;SDS011;59992;47.490;8.736;2023-11-19T15:04:45;1.60;;;0.70;;
72117;SDS011;59992;47.490;8.736;2023-11-19T15:07:13;1.60;;;0.80;;
72117;SDS011;59992;47.490;8.736;2023-11-19T15:09:41;4.10;;;0.70;;